sensor_id;sensor_type;location;lat;lon;timestamp;pressure;altitude;pressure_sealevel;temperature
15360;BMP280;7779;49.596;11.070;2023-07-24T00:00:16;97613.56;;;22.58
15360;BMP280;7779;49.596;11.070;2023-07-24T00:02:42;97670.56;;;22.60
15360;BMP280;7779;49.596;11.070;2023-07-24T00:05:08;97705.47;;;22.64
15360;BMP280;7779;49.596;11.070;2023-07-24T00:07:33;97703.75;;;22.68
15360;BMP280;7779;49.596;11.070;2023-07-24T00:09:59;97695.22;;;22.70
15360;BMP280;7779;49.596;11.070;2023-07-24T00:12:25;97690.97;;;22.72
15360;BMP280;7779;49.596;11.070;2023-07-24T00:14:52;97678.22;;;22.73
15360;BMP280;7779;49.596;11.070;2023-07-24T00:17:18;97656.09;;;22.73
15360;BMP280;7779;49.596;11.070;2023-07-24T00:19:44;97639.94;;;22.69
15360;BMP280;7779;49.596;11.070;2023-07-24T00:22:09;97639.94;;;22.66
15360;BMP280;7779;49.596;11.070;2023-07-24T00:24:35;97638.22;;;22.62
15360;BMP280;7779;49.596;11.070;2023-07-24T00:27:01;97645.03;;;22.57
15360;BMP280;7779;49.596;11.070;2023-07-24T00:29:28;97650.16;;;22.51
15360;BMP280;7779;49.596;11.070;2023-07-24T00:31:54;97671.44;;;22.44
15360;BMP280;7779;49.596;11.070;2023-07-24T00:34:19;97692.69;;;22.37
15360;BMP280;7779;49.596;11.070;2023-07-24T00:36:45;97705.47;;;22.30
15360;BMP280;7779;49.596;11.070;2023-07-24T00:39:13;97720.75;;;22.23
15360;BMP280;7779;49.596;11.070;2023-07-24T00:41:39;97732.66;;;22.18
15360;BMP280;7779;49.596;11.070;2023-07-24T00:44:05;97720.69;;;22.11
15360;BMP280;7779;49.596;11.070;2023-07-24T00:46:30;97722.41;;;22.06
15360;BMP280;7779;49.596;11.070;2023-07-24T00:49:00;97714.75;;;22.03
15360;BMP280;7779;49.596;11.070;2023-07-24T00:51:27;97702.84;;;21.99
15360;BMP280;7779;49.596;11.070;2023-07-24T00:53:59;97676.47;;;21.93
15360;BMP280;7779;49.596;11.070;2023-07-24T00:56:26;97626.31;;;21.89
15360;BMP280;7779;49.596;11.070;2023-07-24T00:58:54;97650.09;;;21.80
15360;BMP280;7779;49.596;11.070;2023-07-24T01:01:25;97650.09;;;21.74
15360;BMP280;7779;49.596;11.070;2023-07-24T01:03:52;97604.19;;;21.71
15360;BMP280;7779;49.596;11.070;2023-07-24T01:06:18;97597.41;;;21.64
15360;BMP280;7779;49.596;11.070;2023-07-24T01:08:44;97568.50;;;21.59
15360;BMP280;7779;49.596;11.070;2023-07-24T01:11:24;97568.47;;;21.56
15360;BMP280;7779;49.596;11.070;2023-07-24T01:14:02;97565.94;;;21.52
15360;BMP280;7779;49.596;11.070;2023-07-24T01:16:41;97565.91;;;21.49
15360;BMP280;7779;49.596;11.070;2023-07-24T01:19:37;97576.13;;;21.43
15360;BMP280;7779;49.596;11.070;2023-07-24T01:25:10;97562.44;;;21.28
15360;BMP280;7779;49.596;11.070;2023-07-24T01:27:45;97575.13;;;21.17
15360;BMP280;7779;49.596;11.070;2023-07-24T01:30:14;97581.94;;;21.11
15360;BMP280;7779;49.596;11.070;2023-07-24T01:32:40;97588.69;;;21.06
15360;BMP280;7779;49.596;11.070;2023-07-24T01:35:06;97609.06;;;21.03
15360;BMP280;7779;49.596;11.070;2023-07-24T01:37:34;97613.28;;;21.03
15360;BMP280;7779;49.596;11.070;2023-07-24T01:40:03;97568.31;;;21.00
15360;BMP280;7779;49.596;11.070;2023-07-24T01:42:30;97552.19;;;21.00
15360;BMP280;7779;49.596;11.070;2023-07-24T01:44:56;97544.50;;;20.95
15360;BMP280;7779;49.596;11.070;2023-07-24T01:47:22;97529.25;;;20.91
15360;BMP280;7779;49.596;11.070;2023-07-24T01:49:48;97524.09;;;20.85
15360;BMP280;7779;49.596;11.070;2023-07-24T01:52:14;97528.34;;;20.80
15360;BMP280;7779;49.596;11.070;2023-07-24T01:54:40;97519.00;;;20.75
15360;BMP280;7779;49.596;11.070;2023-07-24T01:57:06;97519.81;;;20.68
15360;BMP280;7779;49.596;11.070;2023-07-24T01:59:32;97515.50;;;20.62
15360;BMP280;7779;49.596;11.070;2023-07-24T02:01:57;97506.16;;;20.58
15360;BMP280;7779;49.596;11.070;2023-07-24T02:04:23;97519.72;;;20.56
15360;BMP280;7779;49.596;11.070;2023-07-24T02:06:49;97518.00;;;20.53
15360;BMP280;7779;49.596;11.070;2023-07-24T02:09:17;97520.56;;;20.52
15360;BMP280;7779;49.596;11.070;2023-07-24T02:11:42;97518.00;;;20.50
15360;BMP280;7779;49.596;11.070;2023-07-24T02:14:08;97519.69;;;20.50
15360;BMP280;7779;49.596;11.070;2023-07-24T02:16:35;97495.06;;;20.49
15360;BMP280;7779;49.596;11.070;2023-07-24T02:19:01;97498.47;;;20.48
15360;BMP280;7779;49.596;11.070;2023-07-24T02:21:27;97489.13;;;20.45
15360;BMP280;7779;49.596;11.070;2023-07-24T02:23:54;97493.34;;;20.43
15360;BMP280;7779;49.596;11.070;2023-07-24T02:26:20;97497.56;;;20.40
15360;BMP280;7779;49.596;11.070;2023-07-24T02:28:46;97505.22;;;20.38
15360;BMP280;7779;49.596;11.070;2023-07-24T02:31:13;97499.25;;;20.38
15360;BMP280;7779;49.596;11.070;2023-07-24T02:33:39;97495.03;;;20.36
15360;BMP280;7779;49.596;11.070;2023-07-24T02:36:06;97496.72;;;20.34
15360;BMP280;7779;49.596;11.070;2023-07-24T02:38:33;97494.97;;;20.31
15360;BMP280;7779;49.596;11.070;2023-07-24T02:40:59;97510.25;;;20.28
15360;BMP280;7779;49.596;11.070;2023-07-24T02:43:25;97510.25;;;20.27
15360;BMP280;7779;49.596;11.070;2023-07-24T02:45:51;97504.28;;;20.25
15360;BMP280;7779;49.596;11.070;2023-07-24T02:48:16;97511.91;;;20.23
15360;BMP280;7779;49.596;11.070;2023-07-24T02:50:42;97509.34;;;20.22
15360;BMP280;7779;49.596;11.070;2023-07-24T02:53:08;97508.50;;;20.21
15360;BMP280;7779;49.596;11.070;2023-07-24T02:55:34;97509.34;;;20.20
15360;BMP280;7779;49.596;11.070;2023-07-24T02:57:59;97511.03;;;20.20
15360;BMP280;7779;49.596;11.070;2023-07-24T03:00:25;97515.28;;;20.18
15360;BMP280;7779;49.596;11.070;2023-07-24T03:02:52;97521.19;;;20.17
15360;BMP280;7779;49.596;11.070;2023-07-24T03:05:18;97525.44;;;20.16
15360;BMP280;7779;49.596;11.070;2023-07-24T03:07:44;97528.81;;;20.15
15360;BMP280;7779;49.596;11.070;2023-07-24T03:10:09;97524.56;;;20.14
15360;BMP280;7779;49.596;11.070;2023-07-24T03:12:35;97522.03;;;20.14
15360;BMP280;7779;49.596;11.070;2023-07-24T03:15:02;97511.03;;;20.15
15360;BMP280;7779;49.596;11.070;2023-07-24T03:17:28;97506.78;;;20.14
15360;BMP280;7779;49.596;11.070;2023-07-24T03:19:54;97505.09;;;20.13
15360;BMP280;7779;49.596;11.070;2023-07-24T03:22:20;97494.03;;;20.13
15360;BMP280;7779;49.596;11.070;2023-07-24T03:24:46;97487.28;;;20.13
15360;BMP280;7779;49.596;11.070;2023-07-24T03:27:12;97486.41;;;20.14
15360;BMP280;7779;49.596;11.070;2023-07-24T03:29:38;97487.28;;;20.16
15360;BMP280;7779;49.596;11.070;2023-07-24T03:32:07;97485.59;;;20.18
15360;BMP280;7779;49.596;11.070;2023-07-24T03:34:32;97489.00;;;20.22
15360;BMP280;7779;49.596;11.070;2023-07-24T03:36:58;97500.03;;;20.24
15360;BMP280;7779;49.596;11.070;2023-07-24T03:39:24;97493.28;;;20.27
15360;BMP280;7779;49.596;11.070;2023-07-24T03:41:52;97491.59;;;20.29
15360;BMP280;7779;49.596;11.070;2023-07-24T03:44:18;97500.09;;;20.30
15360;BMP280;7779;49.596;11.070;2023-07-24T03:46:43;97497.53;;;20.33
15360;BMP280;7779;49.596;11.070;2023-07-24T03:49:09;97493.31;;;20.35
15360;BMP280;7779;49.596;11.070;2023-07-24T03:51:35;97491.63;;;20.36
15360;BMP280;7779;49.596;11.070;2023-07-24T03:54:00;97489.09;;;20.38
15360;BMP280;7779;49.596;11.070;2023-07-24T03:56:26;97473.81;;;20.38
15360;BMP280;7779;49.596;11.070;2023-07-24T03:58:52;97476.38;;;20.38
15360;BMP280;7779;49.596;11.070;2023-07-24T04:01:18;97471.28;;;20.36
15360;BMP280;7779;49.596;11.070;2023-07-24T04:03:43;97467.88;;;20.35
15360;BMP280;7779;49.596;11.070;2023-07-24T04:06:09;97468.75;;;20.34
15360;BMP280;7779;49.596;11.070;2023-07-24T04:08:35;97474.66;;;20.34
15360;BMP280;7779;49.596;11.070;2023-07-24T04:11:01;97457.72;;;20.33
15360;BMP280;7779;49.596;11.070;2023-07-24T04:13:27;97458.53;;;20.32
15360;BMP280;7779;49.596;11.070;2023-07-24T04:15:52;97454.31;;;20.33
15360;BMP280;7779;49.596;11.070;2023-07-24T04:18:18;97447.53;;;20.33
15360;BMP280;7779;49.596;11.070;2023-07-24T04:20:44;97432.28;;;20.33
15360;BMP280;7779;49.596;11.070;2023-07-24T04:23:09;97435.69;;;20.35
15360;BMP280;7779;49.596;11.070;2023-07-24T04:25:35;97424.66;;;20.37
15360;BMP280;7779;49.596;11.070;2023-07-24T04:28:01;97417.88;;;20.39
15360;BMP280;7779;49.596;11.070;2023-07-24T04:30:26;97398.38;;;20.40
15360;BMP280;7779;49.596;11.070;2023-07-24T04:32:52;97396.69;;;20.45
15360;BMP280;7779;49.596;11.070;2023-07-24T04:35:18;97383.13;;;20.46
15360;BMP280;7779;49.596;11.070;2023-07-24T04:37:43;97403.47;;;20.49
15360;BMP280;7779;49.596;11.070;2023-07-24T04:40:10;97403.50;;;20.53
15360;BMP280;7779;49.596;11.070;2023-07-24T04:42:36;97411.16;;;20.61
15360;BMP280;7779;49.596;11.070;2023-07-24T04:45:01;97397.63;;;20.71
15360;BMP280;7779;49.596;11.070;2023-07-24T04:47:27;97386.63;;;20.85
15360;BMP280;7779;49.596;11.070;2023-07-24T04:49:53;97384.97;;;21.00
15360;BMP280;7779;49.596;11.070;2023-07-24T04:52:20;97396.00;;;21.20
15360;BMP280;7779;49.596;11.070;2023-07-24T04:54:46;97386.66;;;21.37
15360;BMP280;7779;49.596;11.070;2023-07-24T04:57:12;97397.72;;;21.56
15360;BMP280;7779;49.596;11.070;2023-07-24T04:59:37;97409.59;;;21.71
15360;BMP280;7779;49.596;11.070;2023-07-24T05:02:03;97422.31;;;21.80
15360;BMP280;7779;49.596;11.070;2023-07-24T05:04:29;97448.66;;;21.85
15360;BMP280;7779;49.596;11.070;2023-07-24T05:06:55;97495.41;;;21.85
15360;BMP280;7779;49.596;11.070;2023-07-24T05:09:20;97544.72;;;21.81
15360;BMP280;7779;49.596;11.070;2023-07-24T05:11:46;97537.03;;;21.77
15360;BMP280;7779;49.596;11.070;2023-07-24T05:14:12;97520.91;;;21.69
15360;BMP280;7779;49.596;11.070;2023-07-24T05:16:37;97485.22;;;21.61
15360;BMP280;7779;49.596;11.070;2023-07-24T05:19:03;97446.13;;;21.56
15360;BMP280;7779;49.596;11.070;2023-07-24T05:21:29;97474.16;;;21.55
15360;BMP280;7779;49.596;11.070;2023-07-24T05:23:54;97464.84;;;21.53
15360;BMP280;7779;49.596;11.070;2023-07-24T05:26:20;97442.75;;;21.52
15360;BMP280;7779;49.596;11.070;2023-07-24T05:28:47;97439.34;;;21.51
15360;BMP280;7779;49.596;11.070;2023-07-24T05:31:13;97444.44;;;21.51
15360;BMP280;7779;49.596;11.070;2023-07-24T05:33:39;97441.88;;;21.57
15360;BMP280;7779;49.596;11.070;2023-07-24T05:36:05;97429.13;;;21.66
15360;BMP280;7779;49.596;11.070;2023-07-24T05:38:31;97429.13;;;21.79
15360;BMP280;7779;49.596;11.070;2023-07-24T05:40:58;97412.94;;;21.91
15360;BMP280;7779;49.596;11.070;2023-07-24T05:43:24;97407.81;;;22.04
15360;BMP280;7779;49.596;11.070;2023-07-24T05:45:51;97403.56;;;22.16
15360;BMP280;7779;49.596;11.070;2023-07-24T05:48:18;97405.22;;;22.28
15360;BMP280;7779;49.596;11.070;2023-07-24T05:50:44;97410.25;;;22.42
15360;BMP280;7779;49.596;11.070;2023-07-24T05:53:09;97402.53;;;22.59
15360;BMP280;7779;49.596;11.070;2023-07-24T05:55:35;97420.31;;;22.78
15360;BMP280;7779;49.596;11.070;2023-07-24T05:58:01;97421.91;;;22.97
15360;BMP280;7779;49.596;11.070;2023-07-24T06:00:27;97421.78;;;23.16
15360;BMP280;7779;49.596;11.070;2023-07-24T06:02:53;97427.59;;;23.34
15360;BMP280;7779;49.596;11.070;2023-07-24T06:05:20;97431.69;;;23.53
15360;BMP280;7779;49.596;11.070;2023-07-24T06:07:46;97424.78;;;23.67
15360;BMP280;7779;49.596;11.070;2023-07-24T06:10:12;97424.66;;;23.82
15360;BMP280;7779;49.596;11.070;2023-07-24T06:12:38;97421.09;;;23.94
15360;BMP280;7779;49.596;11.070;2023-07-24T06:15:05;97420.97;;;24.06
15360;BMP280;7779;49.596;11.070;2023-07-24T06:17:31;97420.00;;;24.18
15360;BMP280;7779;49.596;11.070;2023-07-24T06:19:57;97421.63;;;24.29
15360;BMP280;7779;49.596;11.070;2023-07-24T06:22:23;97430.88;;;24.39
15360;BMP280;7779;49.596;11.070;2023-07-24T06:24:49;97421.38;;;24.48
15360;BMP280;7779;49.596;11.070;2023-07-24T06:29:00;97416.94;;;24.62
15360;BMP280;7779;49.596;11.070;2023-07-24T06:31:26;97420.28;;;24.69
15360;BMP280;7779;49.596;11.070;2023-07-24T06:33:51;97413.34;;;24.75
15360;BMP280;7779;49.596;11.070;2023-07-24T06:36:17;97410.66;;;24.82
15360;BMP280;7779;49.596;11.070;2023-07-24T06:38:43;97394.34;;;24.89
15360;BMP280;7779;49.596;11.070;2023-07-24T06:41:09;97395.97;;;24.98
15360;BMP280;7779;49.596;11.070;2023-07-24T06:43:35;97387.28;;;25.06
15360;BMP280;7779;49.596;11.070;2023-07-24T06:46:00;97377.81;;;25.10
15360;BMP280;7779;49.596;11.070;2023-07-24T06:48:26;97376.88;;;25.15
15360;BMP280;7779;49.596;11.070;2023-07-24T06:50:52;97373.34;;;25.23
15360;BMP280;7779;49.596;11.070;2023-07-24T06:53:18;97368.03;;;25.35
15360;BMP280;7779;49.596;11.070;2023-07-24T06:55:43;97361.84;;;25.47
15360;BMP280;7779;49.596;11.070;2023-07-24T06:58:09;97355.66;;;25.59
15360;BMP280;7779;49.596;11.070;2023-07-24T07:00:35;97355.38;;;25.74
15360;BMP280;7779;49.596;11.070;2023-07-24T07:03:00;97365.31;;;25.92
15360;BMP280;7779;49.596;11.070;2023-07-24T07:05:26;97363.31;;;26.07
15360;BMP280;7779;49.596;11.070;2023-07-24T07:07:52;97359.63;;;26.22
15360;BMP280;7779;49.596;11.070;2023-07-24T07:10:17;97351.66;;;26.33
15360;BMP280;7779;49.596;11.070;2023-07-24T07:12:43;97340.34;;;26.43
15360;BMP280;7779;49.596;11.070;2023-07-24T07:15:09;97339.31;;;26.50
15360;BMP280;7779;49.596;11.070;2023-07-24T07:17:35;97346.81;;;26.59
15360;BMP280;7779;49.596;11.070;2023-07-24T07:20:01;97328.63;;;26.68
15360;BMP280;7779;49.596;11.070;2023-07-24T07:22:26;97330.97;;;26.77
15360;BMP280;7779;49.596;11.070;2023-07-24T07:24:52;97327.38;;;26.87
15360;BMP280;7779;49.596;11.070;2023-07-24T07:27:18;97322.03;;;26.96
15360;BMP280;7779;49.596;11.070;2023-07-24T07:29:43;97332.09;;;27.05
15360;BMP280;7779;49.596;11.070;2023-07-24T07:32:09;97340.47;;;27.11
15360;BMP280;7779;49.596;11.070;2023-07-24T07:34:35;97334.34;;;27.16
15360;BMP280;7779;49.596;11.070;2023-07-24T07:37:02;97337.66;;;27.21
15360;BMP280;7779;49.596;11.070;2023-07-24T07:39:27;97335.00;;;27.26
15360;BMP280;7779;49.596;11.070;2023-07-24T07:41:53;97334.88;;;27.30
15360;BMP280;7779;49.596;11.070;2023-07-24T07:44:19;97325.38;;;27.32
15360;BMP280;7779;49.596;11.070;2023-07-24T07:46:45;97332.16;;;27.35
15360;BMP280;7779;49.596;11.070;2023-07-24T07:49:10;97335.59;;;27.35
15360;BMP280;7779;49.596;11.070;2023-07-24T07:51:36;97335.50;;;27.38
15360;BMP280;7779;49.596;11.070;2023-07-24T07:54:02;97345.75;;;27.40
15360;BMP280;7779;49.596;11.070;2023-07-24T07:56:28;97340.63;;;27.40
15360;BMP280;7779;49.596;11.070;2023-07-24T07:58:54;97346.53;;;27.43
15360;BMP280;7779;49.596;11.070;2023-07-24T08:01:20;97347.41;;;27.44
15360;BMP280;7779;49.596;11.070;2023-07-24T08:03:45;97344.88;;;27.42
15360;BMP280;7779;49.596;11.070;2023-07-24T08:06:11;97337.19;;;27.41
15360;BMP280;7779;49.596;11.070;2023-07-24T08:08:38;97340.63;;;27.40
15360;BMP280;7779;49.596;11.070;2023-07-24T08:11:07;97337.22;;;27.39
15360;BMP280;7779;49.596;11.070;2023-07-24T08:13:34;97335.59;;;27.35
15360;BMP280;7779;49.596;11.070;2023-07-24T08:16:00;97347.66;;;27.33
15360;BMP280;7779;49.596;11.070;2023-07-24T08:18:31;97343.44;;;27.29
15360;BMP280;7779;49.596;11.070;2023-07-24T08:20:57;97346.09;;;27.28
15360;BMP280;7779;49.596;11.070;2023-07-24T08:23:23;97333.16;;;27.29
15360;BMP280;7779;49.596;11.070;2023-07-24T08:25:53;97339.13;;;27.31
15360;BMP280;7779;49.596;11.070;2023-07-24T08:28:19;97335.59;;;27.35
15360;BMP280;7779;49.596;11.070;2023-07-24T08:30:46;97344.78;;;27.45
15360;BMP280;7779;49.596;11.070;2023-07-24T08:33:12;97341.13;;;27.55
15360;BMP280;7779;49.596;11.070;2023-07-24T08:35:38;97341.72;;;27.64
15360;BMP280;7779;49.596;11.070;2023-07-24T08:38:04;97337.13;;;27.75
15360;BMP280;7779;49.596;11.070;2023-07-24T08:40:30;97336.88;;;27.86
15360;BMP280;7779;49.596;11.070;2023-07-24T08:42:56;97339.09;;;27.97
15360;BMP280;7779;49.596;11.070;2023-07-24T08:45:23;97326.78;;;28.08
15360;BMP280;7779;49.596;11.070;2023-07-24T08:47:50;97324.75;;;28.19
15360;BMP280;7779;49.596;11.070;2023-07-24T08:50:17;97317.69;;;28.27
15360;BMP280;7779;49.596;11.070;2023-07-24T08:52:43;97310.66;;;28.32
15360;BMP280;7779;49.596;11.070;2023-07-24T08:55:10;97316.44;;;28.40
15360;BMP280;7779;49.596;11.070;2023-07-24T08:57:36;97309.31;;;28.48
15360;BMP280;7779;49.596;11.070;2023-07-24T09:00:06;97314.19;;;28.57
15360;BMP280;7779;49.596;11.070;2023-07-24T09:02:35;97313.22;;;28.61
15360;BMP280;7779;49.596;11.070;2023-07-24T09:05:02;97320.03;;;28.63
15360;BMP280;7779;49.596;11.070;2023-07-24T09:07:30;97322.59;;;28.65
15360;BMP280;7779;49.596;11.070;2023-07-24T09:09:56;97319.94;;;28.66
15360;BMP280;7779;49.596;11.070;2023-07-24T09:12:22;97310.34;;;28.71
15360;BMP280;7779;49.596;11.070;2023-07-24T09:15:00;97302.38;;;28.78
15360;BMP280;7779;49.596;11.070;2023-07-24T09:17:26;97291.09;;;28.82
15360;BMP280;7779;49.596;11.070;2023-07-24T09:19:56;97291.69;;;28.90
15360;BMP280;7779;49.596;11.070;2023-07-24T09:22:23;97290.69;;;28.94
15360;BMP280;7779;49.596;11.070;2023-07-24T09:24:54;97287.81;;;29.03
15360;BMP280;7779;49.596;11.070;2023-07-24T09:27:24;97284.94;;;29.12
15360;BMP280;7779;49.596;11.070;2023-07-24T09:29:51;97304.53;;;29.19
15360;BMP280;7779;49.596;11.070;2023-07-24T09:32:25;97293.94;;;29.26
15360;BMP280;7779;49.596;11.070;2023-07-24T09:34:51;97306.59;;;29.34
15360;BMP280;7779;49.596;11.070;2023-07-24T09:37:34;97292.59;;;29.41
15360;BMP280;7779;49.596;11.070;2023-07-24T09:40:03;97290.72;;;29.46
15360;BMP280;7779;49.596;11.070;2023-07-24T09:42:36;97290.59;;;29.49
15360;BMP280;7779;49.596;11.070;2023-07-24T09:45:04;97294.91;;;29.48
15360;BMP280;7779;49.596;11.070;2023-07-24T09:47:31;97299.31;;;29.45
15360;BMP280;7779;49.596;11.070;2023-07-24T09:49:59;97315.81;;;29.41
15360;BMP280;7779;49.596;11.070;2023-07-24T09:52:28;97322.84;;;29.36
15360;BMP280;7779;49.596;11.070;2023-07-24T09:55:15;97327.53;;;29.25
15360;BMP280;7779;49.596;11.070;2023-07-24T09:57:43;97330.47;;;29.13
15360;BMP280;7779;49.596;11.070;2023-07-24T10:00:11;97330.16;;;28.96
15360;BMP280;7779;49.596;11.070;2023-07-24T10:02:37;97313.47;;;28.80
15360;BMP280;7779;49.596;11.070;2023-07-24T10:05:04;97297.59;;;28.67
15360;BMP280;7779;49.596;11.070;2023-07-24T10:07:31;97286.81;;;28.53
15360;BMP280;7779;49.596;11.070;2023-07-24T10:09:58;97283.81;;;28.39
15360;BMP280;7779;49.596;11.070;2023-07-24T10:12:24;97278.22;;;28.27
15360;BMP280;7779;49.596;11.070;2023-07-24T10:14:54;97262.16;;;28.17
15360;BMP280;7779;49.596;11.070;2023-07-24T10:17:40;97282.16;;;28.09
15360;BMP280;7779;49.596;11.070;2023-07-24T10:20:08;97283.13;;;28.05
15360;BMP280;7779;49.596;11.070;2023-07-24T10:22:40;97279.75;;;28.03
15360;BMP280;7779;49.596;11.070;2023-07-24T10:27:45;97294.47;;;27.97
15360;BMP280;7779;49.596;11.070;2023-07-24T10:30:11;97294.66;;;27.91
15360;BMP280;7779;49.596;11.070;2023-07-24T10:32:47;97304.09;;;27.90
15360;BMP280;7779;49.596;11.070;2023-07-24T10:35:15;97308.25;;;27.96
15360;BMP280;7779;49.596;11.070;2023-07-24T10:37:43;97311.50;;;28.04
15360;BMP280;7779;49.596;11.070;2023-07-24T10:40:20;97312.06;;;28.13
15360;BMP280;7779;49.596;11.070;2023-07-24T10:42:46;97315.28;;;28.21
15360;BMP280;7779;49.596;11.070;2023-07-24T10:45:12;97315.91;;;28.29
15360;BMP280;7779;49.596;11.070;2023-07-24T10:47:38;97320.88;;;28.35
15360;BMP280;7779;49.596;11.070;2023-07-24T10:50:04;97315.72;;;28.35
15360;BMP280;7779;49.596;11.070;2023-07-24T10:52:31;97325.97;;;28.36
15360;BMP280;7779;49.596;11.070;2023-07-24T10:55:01;97331.97;;;28.37
15360;BMP280;7779;49.596;11.070;2023-07-24T10:57:29;97317.47;;;28.34
15360;BMP280;7779;49.596;11.070;2023-07-24T10:59:55;97318.31;;;28.33
15360;BMP280;7779;49.596;11.070;2023-07-24T11:02:21;97312.38;;;28.31
15360;BMP280;7779;49.596;11.070;2023-07-24T11:04:47;97312.50;;;28.29
15360;BMP280;7779;49.596;11.070;2023-07-24T11:07:14;97319.41;;;28.27
15360;BMP280;7779;49.596;11.070;2023-07-24T11:09:40;97322.03;;;28.25
15360;BMP280;7779;49.596;11.070;2023-07-24T11:12:11;97325.44;;;28.26
15360;BMP280;7779;49.596;11.070;2023-07-24T11:14:50;97334.00;;;28.26
15360;BMP280;7779;49.596;11.070;2023-07-24T11:17:16;97324.63;;;28.25
15360;BMP280;7779;49.596;11.070;2023-07-24T11:19:42;97336.63;;;28.25
15360;BMP280;7779;49.596;11.070;2023-07-24T11:22:08;97334.94;;;28.24
15360;BMP280;7779;49.596;11.070;2023-07-24T11:24:50;97329.03;;;28.20
15360;BMP280;7779;49.596;11.070;2023-07-24T11:27:16;97330.03;;;28.16
15360;BMP280;7779;49.596;11.070;2023-07-24T11:29:48;97336.03;;;28.15
15360;BMP280;7779;49.596;11.070;2023-07-24T11:32:20;97332.63;;;28.15
15360;BMP280;7779;49.596;11.070;2023-07-24T11:34:51;97331.00;;;28.12
15360;BMP280;7779;49.596;11.070;2023-07-24T11:37:17;97328.50;;;28.09
15360;BMP280;7779;49.596;11.070;2023-07-24T11:39:57;97325.91;;;28.09
15360;BMP280;7779;49.596;11.070;2023-07-24T11:42:27;97326.78;;;28.08
15360;BMP280;7779;49.596;11.070;2023-07-24T11:44:54;97317.28;;;28.10
15360;BMP280;7779;49.596;11.070;2023-07-24T11:47:20;97326.50;;;28.19
15360;BMP280;7779;49.596;11.070;2023-07-24T11:50:05;97310.72;;;28.31
15360;BMP280;7779;49.596;11.070;2023-07-24T11:52:39;97318.03;;;28.44
15360;BMP280;7779;49.596;11.070;2023-07-24T11:55:06;97315.22;;;28.51
15360;BMP280;7779;49.596;11.070;2023-07-24T11:57:32;97304.66;;;28.59
15360;BMP280;7779;49.596;11.070;2023-07-24T11:59:58;97314.75;;;28.68
15360;BMP280;7779;49.596;11.070;2023-07-24T12:02:26;97312.69;;;28.78
15360;BMP280;7779;49.596;11.070;2023-07-24T12:04:57;97307.28;;;28.86
15360;BMP280;7779;49.596;11.070;2023-07-24T12:07:33;97301.84;;;28.95
15360;BMP280;7779;49.596;11.070;2023-07-24T12:10:04;97295.50;;;29.05
15360;BMP280;7779;49.596;11.070;2023-07-24T12:12:46;97283.94;;;29.16
15360;BMP280;7779;49.596;11.070;2023-07-24T12:15:14;97266.56;;;29.22
15360;BMP280;7779;49.596;11.070;2023-07-24T12:17:40;97268.88;;;29.30
15360;BMP280;7779;49.596;11.070;2023-07-24T12:20:08;97253.19;;;29.36
15360;BMP280;7779;49.596;11.070;2023-07-24T12:22:38;97246.06;;;29.44
15360;BMP280;7779;49.596;11.070;2023-07-24T12:25:05;97255.19;;;29.52
15360;BMP280;7779;49.596;11.070;2023-07-24T12:27:32;97247.25;;;29.58
15360;BMP280;7779;49.596;11.070;2023-07-24T12:29:58;97239.28;;;29.64
15360;BMP280;7779;49.596;11.070;2023-07-24T12:32:24;97224.53;;;29.67
15360;BMP280;7779;49.596;11.070;2023-07-24T12:34:52;97230.47;;;29.69
15360;BMP280;7779;49.596;11.070;2023-07-24T12:37:19;97213.44;;;29.65
15360;BMP280;7779;49.596;11.070;2023-07-24T12:39:47;97216.84;;;29.66
15360;BMP280;7779;49.596;11.070;2023-07-24T12:42:13;97216.09;;;29.62
15360;BMP280;7779;49.596;11.070;2023-07-24T12:44:40;97210.25;;;29.57
15360;BMP280;7779;49.596;11.070;2023-07-24T12:47:06;97215.66;;;29.51
15360;BMP280;7779;49.596;11.070;2023-07-24T12:49:32;97215.91;;;29.44
15360;BMP280;7779;49.596;11.070;2023-07-24T12:51:57;97221.41;;;29.35
15360;BMP280;7779;49.596;11.070;2023-07-24T12:54:23;97220.88;;;29.26
15360;BMP280;7779;49.596;11.070;2023-07-24T12:56:50;97221.19;;;29.17
15360;BMP280;7779;49.596;11.070;2023-07-24T12:59:17;97230.03;;;29.09
15360;BMP280;7779;49.596;11.070;2023-07-24T13:01:43;97226.94;;;28.99
15360;BMP280;7779;49.596;11.070;2023-07-24T13:04:09;97224.56;;;28.93
15360;BMP280;7779;49.596;11.070;2023-07-24T13:06:35;97225.34;;;28.95
15360;BMP280;7779;49.596;11.070;2023-07-24T13:09:01;97221.72;;;29.01
15360;BMP280;7779;49.596;11.070;2023-07-24T13:11:26;97236.94;;;29.08
15360;BMP280;7779;49.596;11.070;2023-07-24T13:13:54;97219.59;;;29.13
15360;BMP280;7779;49.596;11.070;2023-07-24T13:16:21;97210.88;;;29.17
15360;BMP280;7779;49.596;11.070;2023-07-24T13:18:46;97200.63;;;29.14
15360;BMP280;7779;49.596;11.070;2023-07-24T13:21:12;97194.63;;;29.13
15360;BMP280;7779;49.596;11.070;2023-07-24T13:23:40;97190.31;;;29.14
15360;BMP280;7779;49.596;11.070;2023-07-24T13:26:06;97179.94;;;29.15
15360;BMP280;7779;49.596;11.070;2023-07-24T13:28:34;97175.59;;;29.17
15360;BMP280;7779;49.596;11.070;2023-07-24T13:31:19;97165.19;;;29.20
15360;BMP280;7779;49.596;11.070;2023-07-24T13:33:46;97162.66;;;29.19
15360;BMP280;7779;49.596;11.070;2023-07-24T13:36:12;97154.00;;;29.20
15360;BMP280;7779;49.596;11.070;2023-07-24T13:38:39;97146.22;;;29.21
15360;BMP280;7779;49.596;11.070;2023-07-24T13:41:05;97157.16;;;29.28
15360;BMP280;7779;49.596;11.070;2023-07-24T13:43:32;97148.25;;;29.36
15360;BMP280;7779;49.596;11.070;2023-07-24T13:45:58;97142.84;;;29.44
15360;BMP280;7779;49.596;11.070;2023-07-24T13:48:27;97132.38;;;29.47
15360;BMP280;7779;49.596;11.070;2023-07-24T13:50:52;97120.25;;;29.49
15360;BMP280;7779;49.596;11.070;2023-07-24T13:53:18;97122.00;;;29.48
15360;BMP280;7779;49.596;11.070;2023-07-24T13:55:44;97110.06;;;29.46
15360;BMP280;7779;49.596;11.070;2023-07-24T13:58:10;97113.63;;;29.42
15360;BMP280;7779;49.596;11.070;2023-07-24T14:00:36;97110.28;;;29.40
15360;BMP280;7779;49.596;11.070;2023-07-24T14:03:01;97115.34;;;29.43
15360;BMP280;7779;49.596;11.070;2023-07-24T14:05:28;97101.41;;;29.47
15360;BMP280;7779;49.596;11.070;2023-07-24T14:07:54;97089.31;;;29.49
15360;BMP280;7779;49.596;11.070;2023-07-24T14:10:20;97102.09;;;29.51
15360;BMP280;7779;49.596;11.070;2023-07-24T14:12:45;97097.81;;;29.50
15360;BMP280;7779;49.596;11.070;2023-07-24T14:15:12;97102.97;;;29.50